ワルシャワ の空港の天気 - METARとTAF

ワルシャワ・フレデリック・ショパン空港 ( EPWA / WAW ) - ポーランド ワルシャワ
飛行場実況気象(Metar)
観測時間08/22 18:30 CEST (08/22 16:30 UTC)
風向・風速東南東 4m/s
視程10km以上
天気現象
なし
気温23℃
湿度44%
気圧1028hPa
METAREPWA 221630Z 11008KT CAVOK 23/10 Q1028 NOSIG
過去の天気等 Google飛行場航空写真 Wunderground天気予報

過去48時間のMETAR

飛行場予報(TAF)
発表時間: 8/22 16:30 CEST (8/22 14:30 UTC)
予報対象時間: 22日17時 CEST ~ 23日17時 CEST
風向・風速東 4m/s
視程10km以上
なし
TAF EPWA 221430Z 2215/2315 08007KT CAVOK